sensor_id;sensor_type;location;lat;lon;timestamp;pressure;altitude;pressure_sealevel;temperature;humidity
36304;BME280;22335;49.800;8.596;2022-09-27T00:06:01;98588.44;;;14.33;67.24
36304;BME280;22335;49.800;8.596;2022-09-27T00:12:48;98517.94;;;13.93;66.74
36304;BME280;22335;49.800;8.596;2022-09-27T00:19:37;98588.59;;;14.40;66.85
36304;BME280;22335;49.800;8.596;2022-09-27T00:26:22;98592.06;;;14.37;67.10
36304;BME280;22335;49.800;8.596;2022-09-27T00:33:09;98444.91;;;13.44;67.22
36304;BME280;22335;49.800;8.596;2022-09-27T00:39:57;98579.84;;;14.34;67.25
36304;BME280;22335;49.800;8.596;2022-09-27T00:46:45;98581.88;;;14.37;67.70
36304;BME280;22335;49.800;8.596;2022-09-27T00:53:37;98554.03;;;14.23;67.57
36304;BME280;22335;49.800;8.596;2022-09-27T01:00:31;98573.44;;;14.30;68.02
36304;BME280;22335;49.800;8.596;2022-09-27T01:07:18;98574.34;;;14.34;67.89
36304;BME280;22335;49.800;8.596;2022-09-27T01:14:27;98573.97;;;14.36;68.08
36304;BME280;22335;49.800;8.596;2022-09-27T01:21:48;98564.06;;;14.31;68.23
36304;BME280;22335;49.800;8.596;2022-09-27T01:28:46;98567.59;;;14.32;68.31
36304;BME280;22335;49.800;8.596;2022-09-27T01:35:49;98473.16;;;13.76;68.28
36304;BME280;22335;49.800;8.596;2022-09-27T01:42:48;98566.41;;;14.48;68.06
36304;BME280;22335;49.800;8.596;2022-09-27T01:49:41;98562.97;;;14.51;68.04
36304;BME280;22335;49.800;8.596;2022-09-27T01:56:36;98557.13;;;14.53;68.17
36304;BME280;22335;49.800;8.596;2022-09-27T02:03:35;98566.34;;;14.61;68.03
36304;BME280;22335;49.800;8.596;2022-09-27T02:10:48;98563.25;;;14.62;68.01
36304;BME280;22335;49.800;8.596;2022-09-27T02:17:43;98569.09;;;14.61;68.00
36304;BME280;22335;49.800;8.596;2022-09-27T02:24:35;98563.44;;;14.53;68.10
36304;BME280;22335;49.800;8.596;2022-09-27T02:31:24;98564.13;;;14.50;68.30
36304;BME280;22335;49.800;8.596;2022-09-27T02:38:14;98485.03;;;13.96;68.44
36304;BME280;22335;49.800;8.596;2022-09-27T03:05:50;98594.84;;;14.52;68.92
36304;BME280;22335;49.800;8.596;2022-09-27T03:12:39;98598.19;;;14.78;68.31
36304;BME280;22335;49.800;8.596;2022-09-27T03:19:25;98607.44;;;15.05;67.75
36304;BME280;22335;49.800;8.596;2022-09-27T03:26:33;98617.03;;;15.30;67.32
36304;BME280;22335;49.800;8.596;2022-09-27T03:33:19;98627.34;;;15.53;66.35
36304;BME280;22335;49.800;8.596;2022-09-27T03:40:11;98632.81;;;15.68;65.68
36304;BME280;22335;49.800;8.596;2022-09-27T03:46:59;98640.78;;;15.74;64.93
36304;BME280;22335;49.800;8.596;2022-09-27T03:53:45;98647.44;;;15.73;63.79
36304;BME280;22335;49.800;8.596;2022-09-27T04:00:31;98655.03;;;15.60;63.71
36304;BME280;22335;49.800;8.596;2022-09-27T04:07:20;98677.16;;;15.63;63.33
36304;BME280;22335;49.800;8.596;2022-09-27T04:14:06;98685.13;;;15.49;62.99
36304;BME280;22335;49.800;8.596;2022-09-27T04:21:10;98686.44;;;15.55;62.64
36304;BME280;22335;49.800;8.596;2022-09-27T04:28:05;98655.56;;;15.46;62.37
36304;BME280;22335;49.800;8.596;2022-09-27T04:34:51;98688.09;;;15.95;62.02
36304;BME280;22335;49.800;8.596;2022-09-27T04:41:49;98696.69;;;16.13;61.41
36304;BME280;22335;49.800;8.596;2022-09-27T04:48:38;98703.88;;;16.18;60.86
36304;BME280;22335;49.800;8.596;2022-09-27T04:55:24;98705.78;;;16.13;60.94
36304;BME280;22335;49.800;8.596;2022-09-27T05:02:09;98712.50;;;16.16;60.65
36304;BME280;22335;49.800;8.596;2022-09-27T05:09:20;98659.06;;;16.01;60.10
36304;BME280;22335;49.800;8.596;2022-09-27T05:16:09;98628.66;;;15.78;59.98
36304;BME280;22335;49.800;8.596;2022-09-27T05:23:34;98721.78;;;16.27;60.01
36304;BME280;22335;49.800;8.596;2022-09-27T05:30:22;98727.75;;;16.29;59.89
36304;BME280;22335;49.800;8.596;2022-09-27T05:37:18;98738.47;;;16.34;59.66
36304;BME280;22335;49.800;8.596;2022-09-27T05:44:04;98743.69;;;16.40;59.61
36304;BME280;22335;49.800;8.596;2022-09-27T05:50:57;98762.28;;;16.43;59.52
36304;BME280;22335;49.800;8.596;2022-09-27T05:57:53;98762.34;;;16.46;59.54
36304;BME280;22335;49.800;8.596;2022-09-27T06:04:46;98777.50;;;16.56;59.36
36304;BME280;22335;49.800;8.596;2022-09-27T06:11:53;98771.75;;;16.42;58.88
36304;BME280;22335;49.800;8.596;2022-09-27T06:18:41;98726.03;;;16.02;58.77
36304;BME280;22335;49.800;8.596;2022-09-27T06:25:27;98791.47;;;16.44;58.66
36304;BME280;22335;49.800;8.596;2022-09-27T06:32:33;98803.22;;;16.41;58.15
36304;BME280;22335;49.800;8.596;2022-09-27T06:39:31;98811.91;;;16.39;57.95
36304;BME280;22335;49.800;8.596;2022-09-27T06:46:36;98813.19;;;16.45;57.92
36304;BME280;22335;49.800;8.596;2022-09-27T06:53:26;98822.28;;;16.46;57.61
36304;BME280;22335;49.800;8.596;2022-09-27T07:00:12;98838.25;;;16.36;57.30
36304;BME280;22335;49.800;8.596;2022-09-27T07:07:27;98844.34;;;16.26;57.26
36304;BME280;22335;49.800;8.596;2022-09-27T07:14:16;98862.41;;;16.24;56.93
36304;BME280;22335;49.800;8.596;2022-09-27T07:21:04;98874.19;;;16.21;57.09
36304;BME280;22335;49.800;8.596;2022-09-27T07:27:51;98881.06;;;16.11;56.86
36304;BME280;22335;49.800;8.596;2022-09-27T07:34:39;98883.28;;;16.05;56.79
36304;BME280;22335;49.800;8.596;2022-09-27T07:41:26;98904.03;;;15.99;56.82
36304;BME280;22335;49.800;8.596;2022-09-27T07:48:14;98903.31;;;16.02;57.11
36304;BME280;22335;49.800;8.596;2022-09-27T07:55:16;98900.44;;;16.14;56.99
36304;BME280;22335;49.800;8.596;2022-09-27T08:02:12;98918.13;;;16.29;56.77
36304;BME280;22335;49.800;8.596;2022-09-27T08:09:04;98917.28;;;16.45;56.83
36304;BME280;22335;49.800;8.596;2022-09-27T08:16:00;98832.69;;;15.98;56.00
36304;BME280;22335;49.800;8.596;2022-09-27T08:23:03;98935.31;;;16.77;56.21
36304;BME280;22335;49.800;8.596;2022-09-27T08:29:53;98933.66;;;16.92;55.80
36304;BME280;22335;49.800;8.596;2022-09-27T08:36:42;98931.16;;;17.07;55.81
36304;BME280;22335;49.800;8.596;2022-09-27T08:43:35;98936.69;;;17.07;55.21
36304;BME280;22335;49.800;8.596;2022-09-27T08:50:28;98946.63;;;17.11;55.02
36304;BME280;22335;49.800;8.596;2022-09-27T08:57:24;98948.00;;;17.21;55.14
36304;BME280;22335;49.800;8.596;2022-09-27T09:04:14;98955.28;;;17.29;54.73
36304;BME280;22335;49.800;8.596;2022-09-27T09:11:08;98948.97;;;17.51;54.81
36304;BME280;22335;49.800;8.596;2022-09-27T09:18:25;98943.53;;;17.36;54.40
36304;BME280;22335;49.800;8.596;2022-09-27T09:25:37;98944.22;;;17.52;54.43
36304;BME280;22335;49.800;8.596;2022-09-27T09:32:36;98941.03;;;17.73;53.97
36304;BME280;22335;49.800;8.596;2022-09-27T09:39:37;98940.81;;;17.82;53.81
36304;BME280;22335;49.800;8.596;2022-09-27T09:46:29;98928.31;;;17.91;53.84
36304;BME280;22335;49.800;8.596;2022-09-27T09:53:33;98931.44;;;17.90;53.36
36304;BME280;22335;49.800;8.596;2022-09-27T10:00:27;98934.09;;;17.83;53.80
36304;BME280;22335;49.800;8.596;2022-09-27T10:07:18;98933.25;;;17.79;54.07
36304;BME280;22335;49.800;8.596;2022-09-27T10:14:09;98831.63;;;17.03;53.82
36304;BME280;22335;49.800;8.596;2022-09-27T10:21:05;98928.44;;;17.52;53.66
36304;BME280;22335;49.800;8.596;2022-09-27T10:27:55;98882.97;;;17.27;53.56
36304;BME280;22335;49.800;8.596;2022-09-27T10:34:45;98918.94;;;17.50;53.21
36304;BME280;22335;49.800;8.596;2022-09-27T10:41:37;98921.19;;;17.44;53.22
36304;BME280;22335;49.800;8.596;2022-09-27T10:48:29;98914.25;;;17.54;53.20
36304;BME280;22335;49.800;8.596;2022-09-27T10:55:22;98861.63;;;17.24;53.06
36304;BME280;22335;49.800;8.596;2022-09-27T11:02:19;98907.31;;;17.64;53.48
36304;BME280;22335;49.800;8.596;2022-09-27T11:09:18;98902.44;;;17.80;53.91
36304;BME280;22335;49.800;8.596;2022-09-27T11:16:25;98895.91;;;17.92;53.68
36304;BME280;22335;49.800;8.596;2022-09-27T11:23:46;98880.16;;;17.96;53.77
36304;BME280;22335;49.800;8.596;2022-09-27T11:30:44;98881.88;;;18.04;53.33
36304;BME280;22335;49.800;8.596;2022-09-27T11:37:57;98884.09;;;18.22;53.67
36304;BME280;22335;49.800;8.596;2022-09-27T11:44:59;98865.66;;;18.33;53.58
36304;BME280;22335;49.800;8.596;2022-09-27T11:52:32;98855.59;;;18.51;53.04
36304;BME280;22335;49.800;8.596;2022-09-27T11:59:49;98857.97;;;18.49;52.61
36304;BME280;22335;49.800;8.596;2022-09-27T12:07:04;98855.53;;;18.44;53.02
36304;BME280;22335;49.800;8.596;2022-09-27T12:13:56;98848.44;;;18.47;52.96
36304;BME280;22335;49.800;8.596;2022-09-27T12:20:46;98848.91;;;18.52;52.72
36304;BME280;22335;49.800;8.596;2022-09-27T12:27:36;98844.38;;;18.71;52.89
36304;BME280;22335;49.800;8.596;2022-09-27T12:34:36;98842.28;;;18.60;52.83
36304;BME280;22335;49.800;8.596;2022-09-27T12:41:25;98851.03;;;18.66;51.93
36304;BME280;22335;49.800;8.596;2022-09-27T12:48:38;98846.28;;;18.66;51.96
36304;BME280;22335;49.800;8.596;2022-09-27T12:55:54;98855.47;;;18.71;51.50
36304;BME280;22335;49.800;8.596;2022-09-27T13:03:14;98847.94;;;18.71;51.47
36304;BME280;22335;49.800;8.596;2022-09-27T13:10:36;98765.63;;;18.31;51.19
36304;BME280;22335;49.800;8.596;2022-09-27T13:17:50;98862.69;;;18.49;50.69
36304;BME280;22335;49.800;8.596;2022-09-27T13:24:54;98862.50;;;18.04;50.83
36304;BME280;22335;49.800;8.596;2022-09-27T13:32:23;98847.31;;;17.68;51.53
36304;BME280;22335;49.800;8.596;2022-09-27T13:39:23;98853.53;;;17.61;51.82
36304;BME280;22335;49.800;8.596;2022-09-27T13:46:49;98850.78;;;17.61;51.82
36304;BME280;22335;49.800;8.596;2022-09-27T13:53:39;98858.47;;;17.71;52.04
36304;BME280;22335;49.800;8.596;2022-09-27T14:00:31;98837.75;;;17.85;52.19
36304;BME280;22335;49.800;8.596;2022-09-27T14:07:30;98847.03;;;18.00;52.39
36304;BME280;22335;49.800;8.596;2022-09-27T14:14:22;98836.16;;;18.14;52.77
36304;BME280;22335;49.800;8.596;2022-09-27T14:21:17;98844.97;;;18.23;52.44
36304;BME280;22335;49.800;8.596;2022-09-27T14:28:40;98832.13;;;18.38;52.57
36304;BME280;22335;49.800;8.596;2022-09-27T14:35:33;98810.47;;;18.47;51.83
36304;BME280;22335;49.800;8.596;2022-09-27T14:42:34;98832.84;;;18.65;51.61
36304;BME280;22335;49.800;8.596;2022-09-27T14:49:23;98804.63;;;18.52;51.04
36304;BME280;22335;49.800;8.596;2022-09-27T14:56:10;98836.25;;;18.85;50.80
36304;BME280;22335;49.800;8.596;2022-09-27T15:03:02;98831.97;;;18.95;50.17
36304;BME280;22335;49.800;8.596;2022-09-27T15:09:52;98836.38;;;18.96;49.74
36304;BME280;22335;49.800;8.596;2022-09-27T15:16:38;98758.97;;;18.39;49.75
36304;BME280;22335;49.800;8.596;2022-09-27T15:23:26;98861.00;;;18.71;49.76
36304;BME280;22335;49.800;8.596;2022-09-27T15:30:19;98786.41;;;17.61;50.35
36304;BME280;22335;49.800;8.596;2022-09-27T15:37:23;98884.13;;;17.95;50.88
36304;BME280;22335;49.800;8.596;2022-09-27T15:44:34;98811.47;;;17.22;51.35
36304;BME280;22335;49.800;8.596;2022-09-27T15:51:41;98885.81;;;17.54;51.40
36304;BME280;22335;49.800;8.596;2022-09-27T15:58:28;98881.19;;;17.61;51.77
36304;BME280;22335;49.800;8.596;2022-09-27T16:05:14;98885.28;;;17.71;51.72
36304;BME280;22335;49.800;8.596;2022-09-27T16:12:03;98887.03;;;17.79;52.01
36304;BME280;22335;49.800;8.596;2022-09-27T16:18:48;98895.06;;;17.88;52.44
36304;BME280;22335;49.800;8.596;2022-09-27T16:25:34;98897.84;;;17.88;52.09
36304;BME280;22335;49.800;8.596;2022-09-27T16:32:22;98891.94;;;17.66;52.50
36304;BME280;22335;49.800;8.596;2022-09-27T16:39:10;98895.19;;;17.49;52.53
36304;BME280;22335;49.800;8.596;2022-09-27T16:46:03;98913.69;;;17.45;52.77
36304;BME280;22335;49.800;8.596;2022-09-27T16:52:55;98902.00;;;17.55;52.25
36304;BME280;22335;49.800;8.596;2022-09-27T16:59:41;98898.94;;;17.60;52.34
36304;BME280;22335;49.800;8.596;2022-09-27T17:06:26;98900.25;;;17.66;51.92
36304;BME280;22335;49.800;8.596;2022-09-27T17:13:15;98905.78;;;17.66;52.16
36304;BME280;22335;49.800;8.596;2022-09-27T17:20:01;98899.00;;;17.64;51.95
36304;BME280;22335;49.800;8.596;2022-09-27T17:26:47;98905.28;;;17.61;51.24
36304;BME280;22335;49.800;8.596;2022-09-27T17:33:39;98903.63;;;17.56;51.26
36304;BME280;22335;49.800;8.596;2022-09-27T17:40:26;98919.16;;;17.64;50.85
36304;BME280;22335;49.800;8.596;2022-09-27T17:47:12;98926.84;;;17.74;51.32
36304;BME280;22335;49.800;8.596;2022-09-27T17:54:13;98916.09;;;17.69;51.55
36304;BME280;22335;49.800;8.596;2022-09-27T18:01:01;98881.91;;;17.32;51.72
36304;BME280;22335;49.800;8.596;2022-09-27T18:07:47;98936.25;;;17.70;51.92
36304;BME280;22335;49.800;8.596;2022-09-27T18:14:35;98931.88;;;17.69;51.93
36304;BME280;22335;49.800;8.596;2022-09-27T18:21:21;98943.31;;;17.67;51.93
36304;BME280;22335;49.800;8.596;2022-09-27T18:28:07;98947.53;;;17.61;51.91
36304;BME280;22335;49.800;8.596;2022-09-27T18:34:55;98942.34;;;17.56;52.07
36304;BME280;22335;49.800;8.596;2022-09-27T18:41:41;98872.22;;;16.99;51.93
36304;BME280;22335;49.800;8.596;2022-09-27T18:48:29;98974.56;;;17.48;51.75
36304;BME280;22335;49.800;8.596;2022-09-27T18:55:18;98963.75;;;17.40;52.12
36304;BME280;22335;49.800;8.596;2022-09-27T19:02:07;98976.66;;;17.32;52.12
36304;BME280;22335;49.800;8.596;2022-09-27T19:08:55;98972.34;;;17.15;52.24
36304;BME280;22335;49.800;8.596;2022-09-27T19:15:53;98960.25;;;17.00;52.65
36304;BME280;22335;49.800;8.596;2022-09-27T19:22:39;98959.38;;;16.77;52.62
36304;BME280;22335;49.800;8.596;2022-09-27T19:29:24;98971.50;;;16.37;52.82
36304;BME280;22335;49.800;8.596;2022-09-27T19:36:14;98968.78;;;16.05;53.04
36304;BME280;22335;49.800;8.596;2022-09-27T19:43:00;98981.50;;;15.78;53.05
36304;BME280;22335;49.800;8.596;2022-09-27T19:49:46;98972.03;;;15.48;53.48
36304;BME280;22335;49.800;8.596;2022-09-27T19:56:34;98936.06;;;14.96;54.10
36304;BME280;22335;49.800;8.596;2022-09-27T20:03:19;98961.69;;;14.85;54.28
36304;BME280;22335;49.800;8.596;2022-09-27T20:10:06;98896.84;;;14.19;54.59
36304;BME280;22335;49.800;8.596;2022-09-27T20:16:55;98939.47;;;14.25;55.20
36304;BME280;22335;49.800;8.596;2022-09-27T20:23:41;98946.00;;;14.08;55.29
36304;BME280;22335;49.800;8.596;2022-09-27T20:30:26;98932.25;;;13.83;55.73
36304;BME280;22335;49.800;8.596;2022-09-27T20:37:15;98924.59;;;13.77;56.08
36304;BME280;22335;49.800;8.596;2022-09-27T20:44:03;98920.13;;;13.60;56.64
36304;BME280;22335;49.800;8.596;2022-09-27T20:50:54;98910.63;;;13.45;56.90
36304;BME280;22335;49.800;8.596;2022-09-27T20:57:47;98905.56;;;13.35;57.31
36304;BME280;22335;49.800;8.596;2022-09-27T21:04:38;98896.28;;;13.27;57.57
36304;BME280;22335;49.800;8.596;2022-09-27T21:11:24;98883.09;;;13.21;57.98
36304;BME280;22335;49.800;8.596;2022-09-27T21:18:12;98888.09;;;13.19;58.33
36304;BME280;22335;49.800;8.596;2022-09-27T21:25:01;98853.22;;;13.07;58.34
36304;BME280;22335;49.800;8.596;2022-09-27T21:31:47;98862.97;;;13.17;58.27
36304;BME280;22335;49.800;8.596;2022-09-27T21:38:35;98807.06;;;12.76;58.71
36304;BME280;22335;49.800;8.596;2022-09-27T21:45:20;98855.41;;;13.13;59.03
36304;BME280;22335;49.800;8.596;2022-09-27T21:52:06;98847.84;;;13.10;59.31
36304;BME280;22335;49.800;8.596;2022-09-27T21:58:54;98840.75;;;13.09;59.61
36304;BME280;22335;49.800;8.596;2022-09-27T22:05:42;98840.28;;;13.07;59.69
36304;BME280;22335;49.800;8.596;2022-09-27T22:12:28;98835.94;;;13.06;59.93
36304;BME280;22335;49.800;8.596;2022-09-27T22:19:16;98824.50;;;13.04;60.13
36304;BME280;22335;49.800;8.596;2022-09-27T22:26:10;98824.50;;;13.04;60.44
36304;BME280;22335;49.800;8.596;2022-09-27T22:32:56;98806.88;;;13.05;60.50
36304;BME280;22335;49.800;8.596;2022-09-27T22:39:44;98798.19;;;13.03;60.85
36304;BME280;22335;49.800;8.596;2022-09-27T22:46:29;98770.88;;;13.07;60.63
36304;BME280;22335;49.800;8.596;2022-09-27T22:53:15;98748.91;;;13.07;60.93
36304;BME280;22335;49.800;8.596;2022-09-27T23:00:04;98745.59;;;13.01;61.22
36304;BME280;22335;49.800;8.596;2022-09-27T23:06:50;98729.81;;;12.98;61.21
36304;BME280;22335;49.800;8.596;2022-09-27T23:13:37;98726.72;;;12.87;61.58
36304;BME280;22335;49.800;8.596;2022-09-27T23:20:26;98718.25;;;12.92;61.88
36304;BME280;22335;49.800;8.596;2022-09-27T23:27:12;98705.69;;;12.91;61.96
36304;BME280;22335;49.800;8.596;2022-09-27T23:34:10;98704.44;;;12.89;62.28
36304;BME280;22335;49.800;8.596;2022-09-27T23:40:59;98621.66;;;12.38;62.63
36304;BME280;22335;49.800;8.596;2022-09-27T23:47:44;98666.81;;;12.89;62.94
36304;BME280;22335;49.800;8.596;2022-09-27T23:54:30;98616.66;;;12.64;62.97
